Terminal Aerodrome Forecast
Issued by NWS

Home | Current Version | Previous Version | Graphics & Text | Print | Product List | Glossary On
Versions: 1 2 3 4 5 6 7 8 9 10 11 12 13 14
000
FTUS43 KUNR 182100 AAA
TAFGCC
TAF AMD
KGCC 182156Z 1822/1918 34015KT P6SM SCT100 BKN200
     FM190300 31006KT P6SM SKC
     FM191200 26005KT P6SM SKC=

USA.gov is the U.S. government's official web portal to all federal, state and local government web resources and services.